Terminal Aerodrome Forecast
Issued by NWS

Home | Current Version | Previous Version | Text Only | Print | Product List | Glossary On
Versions: 1 2 3 4 5 6 7 8 9 10 11 12 13
908
FTUS46 KLOX 241121
TAFPRB
TAF
KPRB 241121Z 2412/2512 VRB03KT P6SM SCT200
     FM241900 21010KT P6SM SCT200
     FM242100 21018G28KT P6SM SCT200
     FM250100 21012KT P6SM SCT200
     FM250400 VRB03KT P6SM SCT200
     FM250800 VRB03KT P6SM OVC010=

USA.gov is the U.S. government's official web portal to all federal, state and local government web resources and services.